Time;durP1;ratioP1;P1;durP2;ratioP2;P2;SDS_P1;SDS_P2;PMS_P1;PMS_P2;Temp;Humidity;BMP_temperature;BMP_pressure;BME280_temperature;BME280_humidity;BME280_pressure;Samples;Min_cycle;Max_cycle;Signal;HPM_P1;HPM_P2
2021/10/14 00:01:44;;;;;;;6.20;5.60;;;14.00;99.90;;;;;;5051557;28;20176;-64
2021/10/14 00:04:15;;;;;;;7.67;7.07;;;14.00;99.90;;;;;;5051956;28;20208;-64
2021/10/14 00:06:43;;;;;;;6.50;6.00;;;14.00;99.90;;;;;;5051438;28;20474;-64
2021/10/14 00:09:09;;;;;;;5.70;5.07;;;14.10;99.90;;;;;;5051967;28;20516;-64
2021/10/14 00:11:34;;;;;;;5.83;5.37;;;14.10;99.90;;;;;;5033738;28;20412;-65
2021/10/14 00:14:00;;;;;;;5.87;5.13;;;14.10;99.90;;;;;;5052085;28;20448;-64
2021/10/14 00:16:26;;;;;;;5.40;5.00;;;14.10;99.90;;;;;;5051565;28;20182;-64
2021/10/14 00:18:51;;;;;;;6.60;6.00;;;14.10;99.90;;;;;;5051502;28;20628;-64
2021/10/14 00:21:17;;;;;;;6.37;5.87;;;14.10;99.90;;;;;;5052058;28;20242;-64
2021/10/14 00:23:43;;;;;;;6.83;6.10;;;14.10;99.90;;;;;;5051478;28;20178;-64
2021/10/14 00:26:08;;;;;;;7.40;6.00;;;14.10;99.90;;;;;;5052017;28;20175;-64
2021/10/14 00:28:34;;;;;;;6.10;5.60;;;14.10;99.90;;;;;;5051414;28;20228;-65
2021/10/14 00:31:00;;;;;;;6.20;5.60;;;14.10;99.90;;;;;;5051308;28;20201;-64
2021/10/14 00:33:25;;;;;;;6.60;5.97;;;14.10;99.90;;;;;;5051924;28;20505;-64
2021/10/14 00:35:51;;;;;;;6.20;4.93;;;14.10;99.90;;;;;;5053457;28;20228;-64
2021/10/14 00:38:17;;;;;;;5.50;5.07;;;14.10;99.90;;;;;;5055602;28;20189;-64
2021/10/14 00:40:46;;;;;;;8.30;5.53;;;14.10;99.90;;;;;;5037114;28;20212;-64
2021/10/14 00:43:12;;;;;;;7.20;5.03;;;14.10;99.90;;;;;;5055518;28;20175;-64
2021/10/14 00:45:37;;;;;;;4.97;4.57;;;14.10;99.90;;;;;;5054642;28;20919;-64
2021/10/14 00:48:03;;;;;;;5.73;5.03;;;14.10;99.90;;;;;;5055586;28;20410;-64
2021/10/14 00:50:29;;;;;;;5.70;4.10;;;14.10;99.90;;;;;;5055285;28;20178;-64
2021/10/14 00:52:57;;;;;;;4.77;4.23;;;14.10;99.90;;;;;;5054603;28;20495;-64
2021/10/14 00:55:24;;;;;;;5.30;4.80;;;14.10;99.90;;;;;;5055210;28;20219;-64
2021/10/14 00:57:50;;;;;;;8.33;5.17;;;14.10;99.90;;;;;;5054507;28;20447;-64
2021/10/14 01:00:17;;;;;;;5.73;5.20;;;14.10;99.90;;;;;;5055140;28;20872;-64
2021/10/14 01:02:43;;;;;;;6.20;5.77;;;14.10;99.90;;;;;;5054483;28;20948;-64
2021/10/14 01:05:09;;;;;;;5.87;5.37;;;14.20;99.90;;;;;;5054734;28;20618;-64
2021/10/14 01:07:34;;;;;;;6.40;5.60;;;14.20;99.90;;;;;;5054063;28;20430;-64
2021/10/14 01:10:00;;;;;;;10.60;6.13;;;14.10;99.90;;;;;;5055240;28;20213;-64
2021/10/14 01:12:27;;;;;;;7.60;7.00;;;14.00;99.90;;;;;;5054947;28;20265;-64
2021/10/14 01:14:53;;;;;;;7.27;6.33;;;14.10;99.90;;;;;;5036503;28;20177;-64
2021/10/14 01:17:19;;;;;;;9.87;6.67;;;14.00;99.90;;;;;;5054741;28;20407;-64
2021/10/14 01:19:45;;;;;;;8.53;7.23;;;14.00;99.90;;;;;;5054113;28;20181;-64
2021/10/14 01:22:11;;;;;;;12.30;7.60;;;14.00;99.90;;;;;;5054715;28;20407;-64
2021/10/14 01:24:37;;;;;;;10.17;7.50;;;14.00;99.90;;;;;;5054134;28;20400;-64
2021/10/14 01:27:08;;;;;;;9.30;8.40;;;14.00;99.90;;;;;;5054442;28;20427;-64
2021/10/14 01:29:34;;;;;;;10.27;7.97;;;14.00;99.90;;;;;;5053955;28;20443;-67
2021/10/14 01:32:02;;;;;;;8.40;7.60;;;14.00;99.90;;;;;;5054502;28;20461;-64
2021/10/14 01:34:28;;;;;;;8.47;7.77;;;14.00;99.90;;;;;;5054323;28;20874;-64
2021/10/14 01:36:54;;;;;;;8.00;7.30;;;14.10;99.90;;;;;;5053837;28;20528;-64
2021/10/14 01:39:19;;;;;;;10.27;7.40;;;14.00;99.90;;;;;;5054400;28;20257;-64
2021/10/14 01:41:47;;;;;;;7.70;7.10;;;14.00;99.90;;;;;;5053403;28;20400;-64
2021/10/14 01:44:14;;;;;;;9.07;7.80;;;14.00;99.90;;;;;;5034142;28;20553;-64
2021/10/14 01:46:40;;;;;;;8.63;7.47;;;14.00;99.90;;;;;;5015001;28;20538;-65
2021/10/14 01:49:07;;;;;;;7.87;7.17;;;14.00;99.90;;;;;;5034190;28;20507;-64
2021/10/14 01:51:33;;;;;;;11.63;7.80;;;14.00;99.90;;;;;;5033990;28;20424;-64
2021/10/14 01:54:00;;;;;;;10.23;8.23;;;14.00;99.90;;;;;;5049712;28;20417;-64
2021/10/14 01:56:26;;;;;;;8.47;7.50;;;14.00;99.90;;;;;;5054047;28;20421;-64
2021/10/14 01:58:51;;;;;;;8.03;7.30;;;14.00;99.90;;;;;;5053124;28;20439;-64
2021/10/14 02:01:17;;;;;;;8.00;7.20;;;14.00;99.90;;;;;;5054013;28;20178;-64
2021/10/14 02:03:43;;;;;;;9.00;8.20;;;14.00;99.90;;;;;;5035138;28;20174;-65
2021/10/14 02:06:08;;;;;;;9.03;7.77;;;14.10;99.90;;;;;;5054304;28;20589;-64
2021/10/14 02:08:34;;;;;;;8.43;7.30;;;14.10;99.90;;;;;;5053788;28;20213;-64
2021/10/14 02:11:00;;;;;;;8.00;7.20;;;14.00;99.90;;;;;;5052973;28;20180;-65
2021/10/14 02:13:25;;;;;;;8.40;7.17;;;14.00;99.70;;;;;;5053770;28;20165;-64
2021/10/14 02:15:51;;;;;;;8.43;6.83;;;14.00;99.70;;;;;;5053120;28;20174;-64
2021/10/14 02:18:16;;;;;;;11.40;7.80;;;14.10;99.60;;;;;;5053645;28;20232;-64
2021/10/14 02:20:42;;;;;;;8.40;7.70;;;14.00;99.50;;;;;;5053006;28;20173;-65
2021/10/14 02:23:08;;;;;;;7.87;7.07;;;14.00;99.60;;;;;;5053600;28;20185;-64
2021/10/14 02:25:34;;;;;;;7.43;6.20;;;14.00;99.70;;;;;;5053515;28;20185;-64
2021/10/14 02:27:59;;;;;;;8.37;7.33;;;13.90;99.90;;;;;;5052232;28;20272;-64
2021/10/14 02:30:25;;;;;;;8.80;7.40;;;13.90;99.90;;;;;;5053439;28;20177;-64
2021/10/14 02:32:51;;;;;;;8.87;7.60;;;13.70;99.90;;;;;;5035021;28;20176;-64
2021/10/14 02:35:16;;;;;;;14.23;7.30;;;13.60;99.90;;;;;;5053174;28;20256;-64
2021/10/14 02:37:42;;;;;;;8.53;7.57;;;13.50;99.90;;;;;;5052635;28;20262;-65
2021/10/14 02:40:09;;;;;;;9.53;7.63;;;13.50;99.90;;;;;;5053198;28;20183;-64
2021/10/14 02:42:35;;;;;;;8.87;7.57;;;13.50;99.90;;;;;;5053189;28;20302;-64
2021/10/14 02:45:01;;;;;;;7.63;6.80;;;13.50;99.90;;;;;;5052243;28;20909;-64
2021/10/14 02:47:26;;;;;;;9.70;7.53;;;13.60;99.90;;;;;;5052571;28;20204;-64
2021/10/14 02:49:52;;;;;;;9.87;7.47;;;13.60;99.90;;;;;;5052377;28;20806;-64
2021/10/14 02:52:18;;;;;;;8.10;7.30;;;13.60;99.90;;;;;;5053049;28;20256;-65
2021/10/14 02:54:43;;;;;;;10.20;7.90;;;13.60;99.90;;;;;;5052337;28;20170;-65
2021/10/14 02:57:09;;;;;;;8.40;7.60;;;13.70;99.90;;;;;;5053014;28;20192;-65
2021/10/14 02:59:35;;;;;;;9.20;8.30;;;13.60;99.90;;;;;;5052670;28;20632;-66
2021/10/14 03:02:00;;;;;;;9.77;8.60;;;13.60;99.90;;;;;;5052328;28;20269;-65
2021/10/14 03:04:26;;;;;;;10.23;9.13;;;13.60;99.90;;;;;;5052882;28;20208;-65
2021/10/14 03:06:52;;;;;;;10.93;8.70;;;13.60;99.90;;;;;;5051682;28;20191;-65
2021/10/14 03:09:18;;;;;;;9.10;8.23;;;13.60;99.90;;;;;;5052842;28;20269;-65
2021/10/14 03:11:43;;;;;;;9.10;8.07;;;13.60;99.90;;;;;;5052181;28;20177;-65
2021/10/14 03:14:09;;;;;;;12.13;8.70;;;13.60;99.90;;;;;;5052963;28;20185;-65
2021/10/14 03:16:35;;;;;;;11.10;8.73;;;13.60;99.90;;;;;;5052668;28;20167;-65
2021/10/14 03:19:01;;;;;;;10.83;9.10;;;13.60;99.90;;;;;;5052013;28;20309;-65
2021/10/14 03:21:26;;;;;;;10.70;9.60;;;13.50;99.90;;;;;;5052665;28;20660;-65
2021/10/14 03:23:52;;;;;;;11.20;10.13;;;13.60;99.90;;;;;;5051773;28;20212;-65
2021/10/14 03:26:18;;;;;;;10.60;9.50;;;13.60;99.90;;;;;;5052372;28;20187;-66
2021/10/14 03:28:43;;;;;;;11.40;10.20;;;13.60;99.90;;;;;;5051372;28;20248;-66
2021/10/14 03:31:10;;;;;;;10.80;9.80;;;13.50;99.90;;;;;;5052605;28;20403;-66
2021/10/14 03:33:36;;;;;;;10.70;9.70;;;13.60;99.90;;;;;;5051970;28;20625;-65
2021/10/14 03:36:02;;;;;;;10.10;9.10;;;13.50;99.90;;;;;;5051860;28;20412;-66
2021/10/14 03:38:28;;;;;;;12.63;9.73;;;13.50;99.90;;;;;;5052328;28;20416;-66
2021/10/14 03:40:53;;;;;;;11.47;10.27;;;13.60;99.90;;;;;;5051718;28;20400;-66
2021/10/14 03:43:19;;;;;;;10.67;9.67;;;13.50;99.90;;;;;;5052245;28;20180;-65
2021/10/14 03:45:45;;;;;;;11.57;10.37;;;13.50;99.90;;;;;;5051885;28;20177;-66
2021/10/14 03:48:10;;;;;;;12.40;10.17;;;13.50;99.90;;;;;;5051520;28;20701;-65
2021/10/14 03:50:37;;;;;;;12.60;11.50;;;13.50;99.90;;;;;;5034630;28;20169;-63
2021/10/14 03:53:02;;;;;;;12.10;10.93;;;13.50;99.90;;;;;;5051680;28;20229;-63
2021/10/14 03:55:28;;;;;;;11.87;10.67;;;13.50;99.90;;;;;;5052246;28;20446;-63
2021/10/14 03:57:55;;;;;;;11.87;10.43;;;13.50;99.90;;;;;;5051644;28;20932;-63
2021/10/14 04:00:21;;;;;;;10.90;9.90;;;13.50;99.90;;;;;;5051910;28;20743;-63
2021/10/14 04:02:47;;;;;;;12.47;11.23;;;13.50;99.90;;;;;;5051362;28;20431;-64
2021/10/14 04:05:13;;;;;;;12.47;11.30;;;13.60;99.90;;;;;;5052243;28;20419;-66
2021/10/14 04:07:39;;;;;;;11.43;10.33;;;13.50;99.90;;;;;;5051858;28;20175;-66
2021/10/14 04:10:06;;;;;;;11.47;10.33;;;13.50;99.90;;;;;;5052498;28;20558;-66
2021/10/14 04:12:32;;;;;;;14.30;11.30;;;13.40;99.90;;;;;;5055786;28;20173;-66
2021/10/14 04:14:58;;;;;;;11.00;9.80;;;13.40;99.90;;;;;;5055385;28;20479;-64
2021/10/14 04:17:23;;;;;;;11.60;10.40;;;13.40;99.90;;;;;;5055900;28;20414;-63
2021/10/14 04:19:49;;;;;;;14.10;11.90;;;13.40;99.90;;;;;;5055348;28;20260;-63
2021/10/14 04:22:15;;;;;;;12.97;11.67;;;13.40;99.90;;;;;;5055678;28;20173;-63
2021/10/14 04:24:41;;;;;;;15.57;12.57;;;13.30;99.90;;;;;;5055832;28;20462;-63
2021/10/14 04:27:07;;;;;;;12.57;11.27;;;13.30;99.90;;;;;;5055093;28;20421;-63
2021/10/14 04:29:33;;;;;;;13.23;11.83;;;13.30;99.90;;;;;;5055748;28;20456;-63
2021/10/14 04:31:59;;;;;;;15.30;12.50;;;13.30;99.90;;;;;;5037287;28;20171;-64
2021/10/14 04:34:25;;;;;;;14.40;12.13;;;13.30;99.90;;;;;;5055435;28;20446;-63
2021/10/14 04:36:51;;;;;;;14.67;13.00;;;13.30;99.90;;;;;;5054985;28;20460;-63
2021/10/14 04:39:17;;;;;;;23.47;14.80;;;13.30;99.90;;;;;;5044876;28;20281;-63
2021/10/14 04:41:44;;;;;;;16.37;14.13;;;13.30;99.90;;;;;;5035575;28;20407;-63
2021/10/14 04:44:10;;;;;;;17.80;14.43;;;13.30;99.90;;;;;;5017918;28;20412;-63
2021/10/14 04:46:36;;;;;;;16.87;14.87;;;13.30;99.90;;;;;;5035515;28;20404;-63
2021/10/14 04:49:03;;;;;;;19.13;16.20;;;13.30;99.90;;;;;;5034719;28;20473;-63
2021/10/14 04:51:28;;;;;;;15.80;13.77;;;13.30;99.90;;;;;;5035120;28;20330;-63
2021/10/14 04:53:54;;;;;;;19.97;14.40;;;13.30;99.90;;;;;;5046960;28;20510;-64
2021/10/14 04:56:20;;;;;;;19.60;16.03;;;13.30;99.90;;;;;;5055215;28;20180;-63
2021/10/14 04:58:45;;;;;;;20.40;15.30;;;13.30;99.90;;;;;;5054639;28;20229;-72
2021/10/14 05:01:11;;;;;;;17.57;14.80;;;13.30;99.90;;;;;;5054415;28;20592;-63
2021/10/14 05:03:37;;;;;;;15.93;13.93;;;13.30;99.90;;;;;;5054314;28;20175;-63
2021/10/14 05:06:02;;;;;;;19.70;16.20;;;13.30;99.90;;;;;;5054204;28;20217;-63
2021/10/14 05:08:28;;;;;;;20.10;16.87;;;13.40;99.90;;;;;;5055035;28;20566;-63
2021/10/14 05:10:54;;;;;;;23.80;16.40;;;13.40;99.90;;;;;;5054247;28;20191;-63
2021/10/14 05:13:19;;;;;;;19.00;15.63;;;13.40;99.90;;;;;;5054685;28;20199;-63
2021/10/14 05:15:45;;;;;;;20.90;16.50;;;13.40;99.90;;;;;;5054811;28;20264;-63
2021/10/14 05:18:11;;;;;;;21.53;16.23;;;13.40;99.90;;;;;;5054215;28;20182;-64
2021/10/14 05:20:37;;;;;;;18.63;16.13;;;13.50;99.90;;;;;;5054416;28;20283;-63
2021/10/14 05:23:03;;;;;;;21.00;16.60;;;13.50;99.90;;;;;;5054133;28;20177;-63
2021/10/14 05:25:28;;;;;;;21.60;14.80;;;13.50;99.90;;;;;;5054674;28;20172;-64
2021/10/14 05:27:54;;;;;;;23.80;16.70;;;13.50;99.90;;;;;;5054022;28;20490;-64
2021/10/14 05:30:20;;;;;;;24.07;18.63;;;13.60;99.90;;;;;;5054288;28;20216;-64
2021/10/14 05:32:46;;;;;;;23.43;17.80;;;13.60;99.90;;;;;;5054225;28;20181;-64
2021/10/14 05:35:12;;;;;;;21.40;16.53;;;13.60;99.90;;;;;;5053811;28;20455;-64
2021/10/14 05:37:38;;;;;;;23.57;18.33;;;13.60;99.90;;;;;;5054008;28;20588;-64
2021/10/14 05:40:05;;;;;;;20.20;16.87;;;13.50;99.90;;;;;;5053687;28;20416;-64
2021/10/14 05:42:30;;;;;;;27.97;18.30;;;13.50;99.90;;;;;;5054389;28;20244;-64
2021/10/14 05:44:56;;;;;;;22.93;18.43;;;13.50;99.90;;;;;;5053608;28;20419;-64
2021/10/14 05:47:22;;;;;;;28.27;20.33;;;13.50;99.90;;;;;;5053976;28;20176;-64
2021/10/14 05:49:48;;;;;;;22.27;18.33;;;13.50;99.90;;;;;;5048846;28;20266;-64
2021/10/14 05:52:14;;;;;;;26.97;19.50;;;13.50;99.90;;;;;;5044921;28;20179;-65
2021/10/14 05:54:40;;;;;;;26.07;18.60;;;13.50;99.90;;;;;;5033642;28;20403;-64
2021/10/14 05:57:06;;;;;;;25.00;18.60;;;13.50;99.90;;;;;;5034976;28;20192;-64
2021/10/14 05:59:31;;;;;;;27.23;19.07;;;13.50;99.90;;;;;;5033952;28;20507;-64
2021/10/14 06:01:58;;;;;;;30.37;19.37;;;13.50;99.90;;;;;;5050968;28;20431;-64
2021/10/14 06:04:23;;;;;;;22.57;16.90;;;13.60;99.90;;;;;;5053547;28;20941;-63
2021/10/14 06:06:49;;;;;;;28.67;19.57;;;13.50;99.90;;;;;;5053302;28;20435;-72
2021/10/14 06:09:15;;;;;;;27.03;18.47;;;13.60;99.90;;;;;;5053355;28;20208;-65
2021/10/14 06:11:40;;;;;;;24.67;18.30;;;13.50;99.90;;;;;;5053780;28;20204;-65
2021/10/14 06:14:06;;;;;;;28.00;18.93;;;13.70;99.90;;;;;;5052935;28;20180;-66
2021/10/14 06:16:32;;;;;;;27.50;19.43;;;13.70;99.90;;;;;;5053525;28;20176;-67
2021/10/14 06:18:57;;;;;;;23.97;19.63;;;13.90;99.90;;;;;;5050361;28;20195;-67
2021/10/14 06:21:23;;;;;;;25.57;19.50;;;13.90;99.90;;;;;;5053169;28;20654;-66
2021/10/14 06:23:49;;;;;;;24.37;19.30;;;14.00;99.90;;;;;;5053584;28;20240;-67
2021/10/14 06:26:14;;;;;;;26.50;20.03;;;14.00;99.90;;;;;;5053142;28;20180;-65
2021/10/14 06:28:40;;;;;;;23.57;19.27;;;14.00;99.90;;;;;;5035583;28;20216;-65
2021/10/14 06:31:06;;;;;;;26.50;20.33;;;14.00;99.90;;;;;;5034972;28;20176;-65
2021/10/14 06:33:32;;;;;;;25.40;19.90;;;14.00;99.90;;;;;;5052720;28;20181;-65
2021/10/14 06:35:58;;;;;;;23.73;19.70;;;13.90;99.90;;;;;;5052283;28;20228;-65
2021/10/14 06:38:23;;;;;;;29.93;22.10;;;13.80;99.90;;;;;;5043553;28;20192;-64
2021/10/14 06:40:49;;;;;;;25.83;19.77;;;13.80;99.90;;;;;;5033272;28;20404;-64
2021/10/14 06:43:15;;;;;;;30.47;22.07;;;13.80;99.90;;;;;;5032703;28;20177;-65
2021/10/14 06:45:42;;;;;;;25.97;19.90;;;13.70;99.90;;;;;;5033261;28;20407;-64
2021/10/14 06:48:08;;;;;;;34.30;21.97;;;13.70;99.90;;;;;;5032567;28;20415;-64
2021/10/14 06:50:34;;;;;;;28.77;20.93;;;13.70;99.90;;;;;;5033128;28;20407;-64
2021/10/14 06:53:00;;;;;;;29.70;19.93;;;13.70;99.90;;;;;;5032967;28;20412;-65
2021/10/14 06:55:26;;;;;;;26.80;20.43;;;13.70;99.90;;;;;;5039654;28;20180;-65
2021/10/14 06:57:52;;;;;;;28.90;21.63;;;13.60;99.90;;;;;;5052741;28;20431;-72
2021/10/14 07:00:22;;;;;;;32.13;22.50;;;13.60;99.90;;;;;;5052838;28;20182;-64
2021/10/14 07:02:51;;;;;;;27.50;19.97;;;13.60;99.90;;;;;;5052789;28;20878;-65
2021/10/14 07:05:17;;;;;;;29.13;21.17;;;13.60;99.90;;;;;;5051341;28;20428;-65
2021/10/14 07:07:43;;;;;;;29.17;22.07;;;13.70;99.90;;;;;;5040635;28;20440;-66
2021/10/14 07:10:09;;;;;;;28.50;20.20;;;13.60;99.90;;;;;;5043358;28;20466;-66
2021/10/14 07:12:38;;;;;;;30.20;20.47;;;13.60;99.90;;;;;;5052719;28;20634;-65
2021/10/14 07:15:04;;;;;;;34.10;20.97;;;13.60;99.90;;;;;;5051830;28;20412;-66
2021/10/14 07:17:30;;;;;;;28.20;21.93;;;13.60;99.90;;;;;;5042723;28;20432;-65
2021/10/14 07:19:55;;;;;;;24.30;19.03;;;13.60;99.90;;;;;;5036768;28;20429;-65
2021/10/14 07:22:21;;;;;;;28.77;20.40;;;13.60;99.90;;;;;;5051533;28;20204;-65
2021/10/14 07:24:47;;;;;;;34.40;22.67;;;13.60;99.90;;;;;;5052929;28;20185;-65
2021/10/14 07:27:13;;;;;;;27.20;20.20;;;13.70;99.90;;;;;;5049716;28;20452;-65
2021/10/14 07:29:39;;;;;;;28.40;18.77;;;13.60;99.90;;;;;;5052104;28;20470;-65
2021/10/14 07:32:07;;;;;;;25.60;20.50;;;13.60;99.90;;;;;;5051799;28;20184;-65
2021/10/14 07:34:35;;;;;;;26.93;21.07;;;13.60;99.90;;;;;;5052050;28;20307;-65
2021/10/14 07:37:01;;;;;;;28.53;19.63;;;13.60;99.90;;;;;;5051847;28;20501;-65
2021/10/14 07:39:27;;;;;;;25.50;18.17;;;13.60;99.90;;;;;;5052250;28;20432;-65
2021/10/14 07:41:53;;;;;;;27.43;19.23;;;13.60;99.90;;;;;;5052380;28;20906;-64
2021/10/14 07:44:19;;;;;;;22.60;18.03;;;13.50;99.90;;;;;;5051599;28;20450;-65
2021/10/14 07:46:45;;;;;;;23.73;19.00;;;13.50;99.90;;;;;;5026110;28;20434;-65
2021/10/14 07:49:13;;;;;;;23.57;18.20;;;13.60;99.90;;;;;;5036756;28;20212;-65
2021/10/14 07:51:39;;;;;;;25.90;19.03;;;13.50;99.90;;;;;;5054635;28;20422;-66
2021/10/14 07:54:05;;;;;;;21.20;16.63;;;13.60;99.90;;;;;;5055484;28;20464;-66
2021/10/14 07:56:32;;;;;;;26.20;18.63;;;13.60;99.90;;;;;;5049114;28;20186;-66
2021/10/14 07:58:58;;;;;;;22.77;16.83;;;13.60;99.90;;;;;;5054754;28;20424;-66
2021/10/14 08:01:24;;;;;;;24.47;16.70;;;13.50;99.90;;;;;;5056406;28;20782;-66
2021/10/14 08:03:50;;;;;;;27.10;18.10;;;13.50;99.90;;;;;;5051255;28;20906;-67
2021/10/14 08:06:16;;;;;;;20.33;15.37;;;13.50;99.90;;;;;;5037217;28;20648;-64
2021/10/14 08:08:42;;;;;;;19.93;15.13;;;13.60;99.90;;;;;;5036106;28;20779;-65
2021/10/14 08:11:09;;;;;;;24.20;18.27;;;13.50;99.90;;;;;;5035573;28;20458;-65
2021/10/14 08:13:35;;;;;;;17.50;15.60;;;13.50;99.90;;;;;;5040473;28;20497;-65
2021/10/14 08:16:03;;;;;;;16.60;14.90;;;13.50;99.90;;;;;;5037325;28;20426;-65
2021/10/14 08:18:31;;;;;;;19.13;15.27;;;13.50;99.90;;;;;;5055311;28;20430;-66
2021/10/14 08:20:58;;;;;;;16.97;14.83;;;13.50;99.90;;;;;;5036176;28;20512;-65
2021/10/14 08:23:26;;;;;;;18.00;15.53;;;13.50;99.90;;;;;;5039200;28;20514;-65
2021/10/14 08:25:52;;;;;;;18.70;15.50;;;13.50;99.90;;;;;;5036259;28;20438;-65
2021/10/14 08:28:19;;;;;;;17.97;16.07;;;13.50;99.90;;;;;;5035200;28;20419;-65
2021/10/14 08:30:47;;;;;;;19.13;17.10;;;13.50;99.90;;;;;;5035767;28;20418;-65
2021/10/14 08:33:14;;;;;;;18.70;15.00;;;13.40;99.90;;;;;;5027850;28;20423;-65
2021/10/14 08:35:39;;;;;;;21.37;15.13;;;13.40;99.90;;;;;;5054364;28;20467;-65
2021/10/14 08:38:07;;;;;;;19.80;17.90;;;13.50;99.90;;;;;;5054694;28;20419;-65
2021/10/14 08:40:35;;;;;;;18.93;16.53;;;13.50;99.90;;;;;;5041329;28;20424;-65
2021/10/14 08:43:05;;;;;;;18.97;15.70;;;13.50;99.90;;;;;;5036695;28;20409;-65
2021/10/14 08:45:34;;;;;;;18.63;14.97;;;13.50;99.90;;;;;;5055238;28;20407;-65
2021/10/14 08:48:01;;;;;;;22.90;18.57;;;13.50;99.90;;;;;;5054189;28;20434;-65
2021/10/14 08:50:28;;;;;;;18.73;15.40;;;13.50;99.90;;;;;;5055020;28;20478;-65
2021/10/14 08:52:53;;;;;;;21.07;15.67;;;13.50;99.90;;;;;;5054778;28;20427;-65
2021/10/14 08:55:19;;;;;;;20.33;15.53;;;13.50;99.90;;;;;;5053849;28;20431;-65
2021/10/14 08:57:45;;;;;;;23.57;18.03;;;13.50;99.90;;;;;;5054515;28;20237;-65
2021/10/14 09:00:11;;;;;;;24.43;16.67;;;13.50;99.90;;;;;;5053799;28;20443;-65
2021/10/14 09:02:37;;;;;;;22.77;17.27;;;13.60;99.90;;;;;;5054495;28;20188;-65
2021/10/14 09:05:07;;;;;;;22.87;16.53;;;13.60;99.90;;;;;;5054431;28;20473;-65
2021/10/14 09:07:33;;;;;;;27.67;18.13;;;13.50;99.90;;;;;;5055108;28;20172;-65
2021/10/14 09:10:05;;;;;;;24.83;17.63;;;13.60;99.90;;;;;;5054679;28;20513;-65
2021/10/14 09:12:34;;;;;;;24.63;18.30;;;13.60;99.90;;;;;;5055036;28;20387;-65
2021/10/14 09:15:04;;;;;;;24.33;18.33;;;13.60;99.90;;;;;;5054765;28;20801;-68
2021/10/14 09:17:39;;;;;;;23.23;17.40;;;13.60;99.90;;;;;;5055145;28;20824;-65
2021/10/14 09:20:26;;;;;;;21.40;15.80;;;13.60;99.90;;;;;;5054242;28;20767;-65
2021/10/14 09:22:56;;;;;;;24.40;18.57;;;13.60;99.90;;;;;;5055138;28;20496;-65
2021/10/14 09:25:29;;;;;;;21.20;17.20;;;13.70;99.90;;;;;;5054112;28;20511;-65
2021/10/14 09:28:10;;;;;;;20.87;15.80;;;13.70;99.90;;;;;;5054719;28;20431;-65
2021/10/14 09:30:59;;;;;;;21.87;16.87;;;13.70;99.90;;;;;;5054700;28;20461;-64
2021/10/14 09:33:45;;;;;;;20.50;16.10;;;13.70;99.90;;;;;;5054042;28;20404;-64
2021/10/14 09:36:11;;;;;;;20.77;15.27;;;13.70;99.90;;;;;;5053951;28;20765;-65
2021/10/14 09:38:37;;;;;;;21.27;15.33;;;13.80;99.90;;;;;;5054735;28;20421;-65
2021/10/14 09:41:04;;;;;;;18.57;14.73;;;13.80;99.90;;;;;;5053898;28;20672;-65
2021/10/14 09:43:30;;;;;;;24.07;16.10;;;13.80;99.90;;;;;;5054374;28;20526;-65
2021/10/14 09:45:56;;;;;;;21.67;15.60;;;13.90;99.90;;;;;;5054309;28;20436;-65
2021/10/14 09:48:22;;;;;;;15.70;13.97;;;13.90;99.90;;;;;;5053510;28;20580;-65
2021/10/14 09:50:49;;;;;;;18.57;16.60;;;13.90;99.90;;;;;;5054295;28;20250;-64
2021/10/14 09:53:17;;;;;;;18.40;15.00;;;14.00;99.90;;;;;;5053828;28;20799;-65
2021/10/14 09:55:44;;;;;;;17.90;14.90;;;14.00;99.90;;;;;;5054152;28;20487;-64
2021/10/14 09:58:10;;;;;;;19.97;16.70;;;14.00;99.90;;;;;;5053508;28;20751;-65
2021/10/14 10:00:38;;;;;;;20.57;16.27;;;14.00;99.90;;;;;;5053786;28;20964;-66
2021/10/14 10:03:10;;;;;;;17.70;15.37;;;13.90;99.90;;;;;;5053377;28;20401;-64
2021/10/14 10:05:38;;;;;;;17.30;15.10;;;14.00;99.90;;;;;;5053605;28;20440;-65
2021/10/14 10:08:38;;;;;;;18.77;14.67;;;14.00;99.90;;;;;;5052050;28;20415;-66
2021/10/14 10:11:07;;;;;;;17.93;15.73;;;14.00;99.90;;;;;;5053904;28;20803;-68
2021/10/14 10:13:36;;;;;;;19.00;16.67;;;14.00;99.90;;;;;;5053676;28;20784;-65
2021/10/14 10:16:14;;;;;;;23.93;15.70;;;14.10;99.90;;;;;;5053681;28;20491;-65
2021/10/14 10:18:41;;;;;;;19.30;15.80;;;14.10;99.90;;;;;;5053688;28;20432;-65
2021/10/14 10:21:09;;;;;;;19.70;16.70;;;14.10;99.90;;;;;;5052596;28;20422;-65
2021/10/14 10:23:45;;;;;;;22.50;15.87;;;14.10;99.90;;;;;;5053363;28;20896;-66
2021/10/14 10:26:32;;;;;;;22.43;17.67;;;14.10;99.90;;;;;;5052360;28;20465;-65
2021/10/14 10:29:21;;;;;;;22.20;16.97;;;14.10;99.90;;;;;;5053028;28;20460;-65
2021/10/14 10:31:51;;;;;;;23.37;18.17;;;14.10;99.90;;;;;;5034966;28;20514;-65
2021/10/14 10:37:15;;;;;;;24.50;17.93;;;14.10;99.90;;;;;;5052865;28;20399;-65
2021/10/14 10:39:48;;;;;;;22.30;17.80;;;14.10;99.90;;;;;;5052950;28;20415;-66
2021/10/14 10:42:38;;;;;;;27.00;20.47;;;14.10;99.90;;;;;;5052766;28;20400;-64
2021/10/14 10:45:25;;;;;;;26.77;19.40;;;14.10;99.90;;;;;;5053322;28;20409;-65
2021/10/14 10:47:54;;;;;;;23.53;17.30;;;14.10;99.90;;;;;;5053100;28;20399;-64
2021/10/14 10:50:29;;;;;;;22.53;18.03;;;14.10;99.90;;;;;;5052429;28;20454;-65
2021/10/14 10:53:15;;;;;;;23.77;18.17;;;14.00;99.90;;;;;;5053234;28;20400;-67
2021/10/14 10:56:08;;;;;;;25.43;20.07;;;14.10;99.90;;;;;;5053074;28;20443;-65
2021/10/14 10:58:46;;;;;;;21.37;17.17;;;14.10;99.90;;;;;;5048670;28;20408;-65
2021/10/14 11:01:16;;;;;;;20.97;18.73;;;14.10;99.90;;;;;;5052306;28;20535;-65
2021/10/14 11:03:57;;;;;;;21.97;17.67;;;14.10;99.90;;;;;;5052764;28;20881;-65
2021/10/14 11:06:23;;;;;;;24.03;18.20;;;14.10;99.90;;;;;;5052026;28;20442;-65
2021/10/14 11:08:49;;;;;;;25.43;19.57;;;14.10;99.90;;;;;;5052694;28;20544;-65
2021/10/14 11:11:18;;;;;;;24.73;17.97;;;14.10;99.90;;;;;;5052224;28;20416;-64
2021/10/14 11:13:47;;;;;;;25.87;20.00;;;14.10;99.90;;;;;;5053125;28;20447;-65
2021/10/14 11:16:14;;;;;;;29.57;21.10;;;14.10;99.90;;;;;;5052082;28;20404;-65
2021/10/14 11:18:43;;;;;;;24.37;19.20;;;14.10;99.90;;;;;;5034686;28;20900;-65
2021/10/14 11:21:12;;;;;;;22.10;19.67;;;14.10;99.90;;;;;;5052009;28;20412;-66
2021/10/14 11:23:42;;;;;;;24.00;19.40;;;14.20;99.90;;;;;;5052659;28;20396;-65
2021/10/14 11:26:13;;;;;;;28.40;18.77;;;14.20;99.90;;;;;;5052574;28;20792;-68
2021/10/14 11:29:05;;;;;;;22.73;18.07;;;14.20;99.90;;;;;;5052594;28;20444;-65
2021/10/14 11:31:33;;;;;;;21.60;17.90;;;14.20;99.90;;;;;;5051924;28;20405;-65
2021/10/14 11:34:13;;;;;;;22.27;18.70;;;14.20;99.90;;;;;;5052314;28;20463;-65
2021/10/14 11:36:51;;;;;;;25.43;18.97;;;14.30;99.90;;;;;;5052157;28;20487;-65
2021/10/14 11:39:18;;;;;;;22.00;18.87;;;14.30;99.90;;;;;;5051918;28;20409;-65
2021/10/14 11:41:44;;;;;;;23.30;19.70;;;14.30;99.90;;;;;;5034934;28;20506;-65
2021/10/14 11:44:11;;;;;;;22.23;19.33;;;14.30;99.90;;;;;;5051518;28;20435;-66
2021/10/14 11:46:39;;;;;;;22.47;18.77;;;14.40;99.90;;;;;;5052123;28;20412;-65
2021/10/14 11:49:11;;;;;;;22.10;18.07;;;14.40;99.90;;;;;;5052202;28;20460;-65
2021/10/14 11:51:38;;;;;;;20.20;17.03;;;14.40;99.90;;;;;;5052266;28;20495;-65
2021/10/14 11:54:08;;;;;;;22.67;17.70;;;14.40;99.90;;;;;;5052404;28;20401;-65
2021/10/14 11:56:44;;;;;;;22.00;18.50;;;14.40;99.90;;;;;;5051975;28;20781;-64
2021/10/14 11:59:10;;;;;;;21.10;18.10;;;14.50;99.90;;;;;;5051819;28;20400;-68
2021/10/14 12:01:48;;;;;;;20.30;17.57;;;14.50;99.90;;;;;;5052126;28;20412;-65
2021/10/14 12:04:20;;;;;;;22.03;18.40;;;14.60;99.90;;;;;;5051687;28;20542;-65
2021/10/14 12:06:48;;;;;;;22.10;17.87;;;14.60;99.90;;;;;;5052326;28;20900;-65
2021/10/14 12:09:16;;;;;;;19.30;17.30;;;14.60;99.90;;;;;;5051481;28;20560;-66
2021/10/14 12:11:42;;;;;;;21.90;17.67;;;14.60;99.90;;;;;;5034058;28;20760;-66
2021/10/14 12:14:07;;;;;;;26.03;18.03;;;14.60;99.90;;;;;;5052083;28;20888;-66
2021/10/14 12:16:33;;;;;;;21.83;17.90;;;14.60;99.90;;;;;;5051475;28;20412;-66
2021/10/14 12:19:19;;;;;;;21.20;17.57;;;14.70;99.90;;;;;;5052139;28;20211;-66
2021/10/14 12:21:46;;;;;;;21.20;17.47;;;14.70;99.90;;;;;;5052100;28;20408;-66
2021/10/14 12:24:25;;;;;;;20.10;17.97;;;14.80;99.90;;;;;;5051475;28;20447;-67
2021/10/14 12:26:55;;;;;;;23.03;17.73;;;14.80;99.90;;;;;;5052222;28;20797;-65
2021/10/14 12:29:32;;;;;;;20.87;17.60;;;14.90;99.90;;;;;;5051426;28;20436;-66
2021/10/14 12:32:07;;;;;;;20.70;17.27;;;14.90;99.90;;;;;;5054581;28;20435;-66
2021/10/14 12:34:53;;;;;;;22.57;19.27;;;14.90;99.90;;;;;;5054454;28;20824;-66
2021/10/14 12:37:25;;;;;;;22.10;17.83;;;15.00;99.90;;;;;;5055026;28;20422;-66
2021/10/14 12:40:10;;;;;;;22.23;17.50;;;15.10;99.90;;;;;;5055857;28;20495;-66